Here is the Quick Look data you requested

The Data originates at the National Weather Service, and is made available here by the UAlbany Department of Atmospheric and Environmental Sciences

Surface Observations

KNAK 241154Z AUTO 10SM CLR 22/12 A2982 RMK AO2 SLP101 T02170117 10217 20178
 53023 $
KNAK 241154Z AUTO 10SM CLR 22/12 A2982 RMK AO2 SLP101 T02170117 10217 20178
 53023 $=
KNAK 241254Z AUTO 32014G20KT 10SM CLR 19/10 A2985 RMK AO2 SLP111 T01940100
KNAK 241254Z AUTO 32014G20KT 10SM CLR 19/10 A2985 RMK AO2 SLP111 T01940100=
KNAK 241354Z AUTO 32010G20KT 10SM CLR 19/09 A2986 RMK AO2 SLP115 T01890089
KNAK 241354Z AUTO 32010G20KT 10SM CLR 19/09 A2986 RMK AO2 SLP115 T01890089=
KNAK 241454Z AUTO 32007KT 10SM CLR 20/06 A2988 RMK AO2 SLP118 T02000061 51018
KNAK 241454Z AUTO 32007KT 10SM CLR 20/06 A2988 RMK AO2 SLP118 T02000061 51018=
KNAK 241554Z AUTO 30008G16KT 270V330 10SM CLR 21/04 A2987 RMK AO2 SLP115
 T02110044
KNAK 241554Z AUTO 30008G16KT 270V330 10SM CLR 21/04 A2987 RMK AO2 SLP115
 T02110044=
KNAK 241654Z AUTO 33008KT 10SM CLR 22/05 A2986 RMK AO2 SLP112 T02220050 $
KNAK 241654Z AUTO 33008KT 10SM CLR 22/05 A2986 RMK AO2 SLP112 T02220050 $=
KNAK 241754Z AUTO 30008KT 10SM CLR 22/04 A2984 RMK AO2 SLP107 T02220044 10222
 20189 58011 $
KNAK 241754Z AUTO 30008KT 10SM CLR 22/04 A2984 RMK AO2 SLP107 T02220044 10222
 20189 58011 $=
KNAK 241854Z AUTO VRB06KT 10SM CLR 24/04 A2983 RMK AO2 SLP104 T02440044 $
KNAK 241854Z AUTO VRB06KT 10SM CLR 24/04 A2983 RMK AO2 SLP104 T02440044 $=
KNAK 241954Z AUTO 32007KT 10SM CLR 24/03 A2982 RMK AO2 SLP100 T02440028
KNAK 241954Z AUTO 32007KT 10SM CLR 24/03 A2982 RMK AO2 SLP100 T02440028=
KNAK 242054Z AUTO 31008KT 10SM CLR 24/03 A2983 RMK AO2 SLP103 T02440028 55004
KNAK 242054Z AUTO 31008KT 10SM CLR 24/03 A2983 RMK AO2 SLP103 T02440028 55004=
KNAK 242154Z AUTO 32003KT 10SM CLR 24/04 A2984 RMK AO2 SLP105 T02440039
KNAK 242154Z AUTO 32003KT 10SM CLR 24/04 A2984 RMK AO2 SLP105 T02440039=
KNAK 242254Z AUTO 32003KT 10SM CLR 23/04 A2983 RMK AO2 SLP104 T02330039
KNAK 242254Z AUTO 32003KT 10SM CLR 23/04 A2983 RMK AO2 SLP104 T02330039=
KNAK 242354Z AUTO 10SM CLR 21/06 A2984 RMK AO2 SLP106 T02110056 10250 20206
 53003 $
KNAK 242354Z AUTO 10SM CLR 21/06 A2984 RMK AO2 SLP106 T02110056 10250 20206
 53003 $=
KNAK 250054Z AUTO 10SM CLR 18/11 A2986 RMK AO2 SLP112 T01830106 $
KNAK 250054Z AUTO 10SM CLR 18/11 A2986 RMK AO2 SLP112 T01830106 $=
KNAK 250154Z AUTO 10SM CLR 17/10 A2988 RMK AO2 SLP120 T01720100 $
KNAK 250154Z AUTO 10SM CLR 17/10 A2988 RMK AO2 SLP120 T01720100 $=
KNAK 250254Z AUTO 10SM CLR 17/09 A2989 RMK AO2 SLP122 T01720089 51016 $
KNAK 250254Z AUTO 10SM CLR 17/09 A2989 RMK AO2 SLP122 T01720089 51016 $=
KNAK 250354Z AUTO 10SM SCT110 17/09 A2990 RMK AO2 SLP126 T01670094 $
KNAK 250354Z AUTO 10SM SCT110 17/09 A2990 RMK AO2 SLP126 T01670094 $=
KNAK 250454Z AUTO 10SM FEW100 17/11 A2990 RMK AO2 SLP127 T01720111 402500161 $
KNAK 250454Z AUTO 10SM FEW100 17/11 A2990 RMK AO2 SLP127 T01720111 402500161 $=
KNAK 250554Z AUTO 10SM CLR 17/12 A2988 RMK AO2 SLP121 T01720117 10206 20161
 58001 $
KNAK 250554Z AUTO 10SM CLR 17/12 A2988 RMK AO2 SLP121 T01720117 10206 20161
 58001 $=
KNAK 250654Z AUTO 10SM BKN110 17/10 A2989 RMK AO2 SLP122 T01720100 $
KNAK 250654Z AUTO 10SM BKN110 17/10 A2989 RMK AO2 SLP122 T01720100 $=
KNAK 250754Z AUTO 10SM OVC100 17/11 A2988 RMK AO2 SLP121 T01720111 $
KNAK 250754Z AUTO 10SM OVC100 17/11 A2988 RMK AO2 SLP121 T01720111 $=
KNAK 250854Z AUTO 10SM BKN110 17/10 A2988 RMK AO2 SLP121 T01720100 58000 $
KNAK 250854Z AUTO 10SM BKN110 17/10 A2988 RMK AO2 SLP121 T01720100 58000 $=
KNAK 250954Z AUTO 10SM OVC085 17/10 A2990 RMK AO2 SLP128 T01720100 $
KNAK 250954Z AUTO 10SM OVC085 17/10 A2990 RMK AO2 SLP128 T01720100 $=
KNAK 251054Z AUTO 10SM OVC100 17/11 A2992 RMK AO2 SLP134 T01720111
KNAK 251054Z AUTO 10SM OVC100 17/11 A2992 RMK AO2 SLP134 T01720111=
KNAK 251154Z AUTO 10SM SCT100 18/12 A2994 RMK AO2 SLP140 T01780117 10183 20167
 51019
KNAK 251154Z AUTO 10SM SCT100 18/12 A2994 RMK AO2 SLP140 T01780117 10183 20167
 51019=
KNAK 251254Z AUTO 06004KT 10SM SCT090 18/07 A2994 RMK AO2 SLP139 T01830067
KNAK 251254Z AUTO 06004KT 10SM SCT090 18/07 A2994 RMK AO2 SLP139 T01830067=
KNAK 251354Z AUTO 05005KT 10SM FEW060 BKN110 18/07 A2993 RMK AO2 SLP135
 T01830072 $
KNAK 251354Z AUTO 05005KT 10SM FEW060 BKN110 18/07 A2993 RMK AO2 SLP135
 T01830072 $=
KNAK 251454Z AUTO 00000KT 10SM FEW065 FEW120 19/09 A2994 RMK AO2 SLP140
 T01890089 55000 $
KNAK 251454Z AUTO 00000KT 10SM FEW065 FEW120 19/09 A2994 RMK AO2 SLP140
 T01890089 55000 $=
KNAK 251554Z AUTO 06006KT 10SM CLR 19/10 A2991 RMK AO2 SLP131 T01940100 $
KNAK 251554Z AUTO 06006KT 10SM CLR 19/10 A2991 RMK AO2 SLP131 T01940100 $=
KNAK 251654Z AUTO VRB03KT 10SM CLR 20/09 A2991 RMK AO2 SLP131 T02000089 $
KNAK 251654Z AUTO VRB03KT 10SM CLR 20/09 A2991 RMK AO2 SLP131 T02000089 $=
KNAK 251754Z AUTO 05005KT 10SM FEW055 21/10 A2990 RMK AO2 SLP125 T02110100
 10211 20178 56014
KNAK 251754Z AUTO 05005KT 10SM FEW055 21/10 A2990 RMK AO2 SLP125 T02110100
 10211 20178 56014=